createdAt,value
2023-04-12T00:00:13.838Z,2.57
2023-04-12T00:02:35.675Z,2.30
2023-04-12T00:04:57.998Z,1.97
2023-04-12T00:07:21.402Z,2.80
2023-04-12T00:09:43.047Z,2.00
2023-04-12T00:12:06.205Z,2.60
2023-04-12T00:14:28.888Z,1.53
2023-04-12T00:16:51.016Z,1.40
2023-04-12T00:19:12.823Z,1.40
2023-04-12T00:21:35.792Z,1.73
2023-04-12T00:23:57.522Z,1.60
2023-04-12T00:26:21.733Z,1.30
2023-04-12T00:28:45.586Z,1.47
2023-04-12T00:31:07.870Z,1.60
2023-04-12T00:33:29.583Z,2.00
2023-04-12T00:35:54.550Z,1.87
2023-04-12T00:38:17.258Z,1.63
2023-04-12T00:40:43.343Z,1.30
2023-04-12T00:43:05.117Z,2.20
2023-04-12T00:45:27.383Z,1.50
2023-04-12T00:47:49.352Z,1.40
2023-04-12T00:50:11.972Z,1.40
2023-04-12T00:52:36.435Z,1.57
2023-04-12T00:57:21.096Z,1.57
2023-04-12T00:59:42.857Z,1.53
2023-04-12T01:02:05.053Z,1.80
2023-04-12T01:04:28.618Z,1.40
2023-04-12T01:07:15.812Z,1.57
2023-04-12T01:10:14.509Z,1.50
2023-04-12T01:12:47.815Z,1.77
2023-04-12T01:18:23.619Z,1.65
2023-04-12T01:20:57.729Z,1.80
2023-04-12T01:23:40.210Z,1.80
2023-04-12T01:26:34.605Z,1.70
2023-04-12T01:29:03.735Z,1.80
2023-04-12T01:31:31.273Z,1.80
2023-04-12T01:33:56.512Z,2.00
2023-04-12T01:36:22.839Z,2.00
2023-04-12T01:38:46.835Z,1.73
2023-04-12T01:41:09.390Z,1.60
2023-04-12T01:43:31.045Z,2.03
2023-04-12T01:45:52.759Z,1.70
2023-04-12T01:48:14.625Z,1.70
2023-04-12T01:50:58.254Z,1.77
2023-04-12T01:53:48.207Z,1.60
2023-04-12T01:56:11.742Z,1.70
2023-04-12T01:58:35.309Z,1.77
2023-04-12T02:01:01.566Z,1.70
2023-04-12T02:03:25.119Z,1.93
2023-04-12T02:05:47.573Z,2.20
2023-04-12T02:08:09.836Z,2.17
2023-04-12T02:10:32.562Z,1.60
2023-04-12T02:12:55.426Z,1.70
2023-04-12T02:15:21.215Z,1.60
2023-04-12T02:17:42.930Z,1.60
2023-04-12T02:20:12.140Z,1.77
2023-04-12T02:22:33.905Z,2.23
2023-04-12T02:24:55.621Z,1.80
2023-04-12T02:27:18.836Z,2.00
2023-04-12T02:29:41.367Z,1.90
2023-04-12T02:32:03.131Z,1.70
2023-04-12T02:34:24.858Z,1.87
2023-04-12T02:36:54.227Z,1.57
2023-04-12T02:39:19.385Z,1.50
2023-04-12T02:41:43.246Z,2.03
2023-04-12T02:44:07.371Z,1.98
2023-04-12T02:46:29.469Z,1.60
2023-04-12T02:48:53.455Z,1.80
2023-04-12T02:51:17.569Z,1.60
2023-04-12T02:53:43.569Z,1.97
2023-04-12T02:56:13.006Z,1.50
2023-04-12T02:58:36.647Z,1.80
2023-04-12T03:01:00.270Z,1.63
2023-04-12T03:03:31.962Z,2.03
2023-04-12T03:05:59.854Z,1.40
2023-04-12T03:08:22.066Z,1.50
2023-04-12T03:10:50.348Z,1.87
2023-04-12T03:13:12.192Z,1.60
2023-04-12T03:15:40.340Z,1.30
2023-04-12T03:18:03.053Z,1.87
2023-04-12T03:20:29.500Z,1.60
2023-04-12T03:22:58.855Z,1.90
2023-04-12T03:25:20.842Z,1.67
2023-04-12T03:27:49.146Z,1.70
2023-04-12T03:30:14.596Z,1.73
2023-04-12T03:32:39.572Z,1.70
2023-04-12T03:35:03.857Z,1.20
2023-04-12T03:37:26.692Z,1.10
2023-04-12T03:39:51.664Z,1.43
2023-04-12T03:42:31.809Z,1.30
2023-04-12T03:45:03.283Z,1.20
2023-04-12T03:47:25.496Z,1.50
2023-04-12T03:50:01.712Z,1.63
2023-04-12T03:52:30.617Z,1.50
2023-04-12T03:54:52.264Z,1.53
2023-04-12T03:57:21.319Z,1.27
2023-04-12T03:59:44.515Z,1.90
2023-04-12T04:02:07.347Z,1.97
2023-04-12T04:04:32.987Z,2.20
2023-04-12T04:07:01.222Z,1.40
2023-04-12T04:09:25.409Z,1.37
2023-04-12T04:11:47.535Z,1.47
2023-04-12T04:14:09.271Z,1.73
2023-04-12T04:16:31.322Z,2.17
2023-04-12T04:18:54.922Z,2.30
2023-04-12T04:21:19.591Z,1.60
2023-04-12T04:23:44.713Z,1.40
2023-04-12T04:26:10.913Z,1.53
2023-04-12T04:28:47.824Z,2.17
2023-04-12T04:31:14.029Z,1.40
2023-04-12T04:33:38.994Z,1.75
2023-04-12T04:36:04.570Z,1.45
2023-04-12T04:38:28.408Z,1.47
2023-04-12T04:41:04.757Z,1.53
2023-04-12T04:43:40.975Z,1.20
2023-04-12T04:46:03.142Z,1.70
2023-04-12T04:48:25.112Z,1.57
2023-04-12T04:50:47.381Z,1.50
2023-04-12T04:53:09.348Z,1.67
2023-04-12T04:55:31.143Z,1.60
2023-04-12T04:57:53.097Z,1.70
2023-04-12T05:00:16.430Z,1.90
2023-04-12T05:02:43.039Z,1.57
2023-04-12T05:05:09.347Z,1.60
2023-04-12T05:07:31.023Z,1.63
2023-04-12T05:09:53.586Z,1.53
2023-04-12T05:12:16.356Z,1.60
2023-04-12T05:14:48.149Z,1.50
2023-04-12T05:17:13.422Z,1.33
2023-04-12T05:19:35.260Z,1.90
2023-04-12T05:21:58.300Z,1.87
2023-04-12T05:24:20.649Z,1.93
2023-04-12T05:26:42.479Z,1.90
2023-04-12T05:29:08.468Z,1.60
2023-04-12T05:31:30.524Z,1.60
2023-04-12T05:33:54.794Z,1.38
2023-04-12T05:36:21.322Z,1.80
2023-04-12T05:38:43.442Z,1.60
2023-04-12T05:41:07.405Z,1.90
2023-04-12T05:43:29.154Z,1.83
2023-04-12T05:45:52.324Z,1.80
2023-04-12T05:48:18.832Z,1.40
2023-04-12T05:50:41.493Z,1.60
2023-04-12T05:55:30.053Z,1.70
2023-04-12T05:57:52.301Z,1.60
2023-04-12T06:00:17.496Z,1.80
2023-04-12T06:02:41.823Z,1.70
2023-04-12T06:05:04.909Z,1.90
2023-04-12T06:07:27.084Z,1.70
2023-04-12T06:09:49.932Z,1.80
2023-04-12T06:12:12.326Z,2.20
2023-04-12T06:14:35.051Z,1.90
2023-04-12T06:16:57.632Z,1.90
2023-04-12T06:19:19.421Z,2.00
2023-04-12T06:21:41.200Z,2.53
2023-04-12T06:24:04.356Z,2.23
2023-04-12T06:26:26.026Z,2.50
2023-04-12T06:28:47.942Z,2.00
2023-04-12T06:31:10.082Z,2.50
2023-04-12T06:33:34.101Z,2.00
2023-04-12T06:35:56.343Z,2.37
2023-04-12T06:38:19.184Z,2.23
2023-04-12T06:40:41.026Z,2.20
2023-04-12T06:43:02.697Z,1.70
2023-04-12T06:45:24.457Z,1.90
2023-04-12T06:47:47.425Z,1.60
2023-04-12T06:50:09.864Z,1.50
2023-04-12T06:52:31.539Z,1.80
2023-04-12T06:54:56.126Z,1.83
2023-04-12T06:57:18.194Z,1.80
2023-04-12T06:59:40.283Z,1.70
2023-04-12T07:02:02.078Z,1.50
2023-04-12T07:04:23.866Z,1.70
2023-04-12T07:06:45.608Z,1.60
2023-04-12T07:09:07.288Z,1.80
2023-04-12T07:11:29.058Z,1.43
2023-04-12T07:13:51.599Z,1.50
2023-04-12T07:16:13.547Z,1.67
2023-04-12T07:18:35.551Z,1.80
2023-04-12T07:20:58.380Z,1.90
2023-04-12T07:23:20.283Z,1.90
2023-04-12T07:25:42.270Z,1.80
2023-04-12T07:28:04.452Z,1.80
2023-04-12T07:30:26.289Z,1.97
2023-04-12T07:32:48.929Z,1.83
2023-04-12T07:35:11.019Z,2.30
2023-04-12T07:37:32.763Z,2.10
2023-04-12T07:39:54.589Z,2.10
2023-04-12T07:42:16.684Z,2.50
2023-04-12T07:44:39.023Z,2.27
2023-04-12T07:47:01.175Z,2.40
2023-04-12T07:49:22.847Z,2.30
2023-04-12T07:51:44.479Z,2.43
2023-04-12T07:54:06.438Z,2.40
2023-04-12T07:56:28.400Z,2.17
2023-04-12T07:58:50.177Z,2.40
2023-04-12T08:01:13.466Z,2.33
2023-04-12T08:03:35.258Z,2.53
2023-04-12T08:05:57.054Z,2.47
2023-04-12T08:08:23.039Z,2.77
2023-04-12T08:10:44.796Z,2.47
2023-04-12T08:13:07.104Z,2.57
2023-04-12T08:15:28.828Z,2.60
2023-04-12T08:17:50.590Z,2.53
2023-04-12T08:20:12.387Z,2.60
2023-04-12T08:22:34.103Z,2.30
2023-04-12T08:24:55.960Z,2.53
2023-04-12T08:27:17.652Z,2.60
2023-04-12T08:29:39.556Z,2.27
2023-04-12T08:32:01.744Z,2.80
2023-04-12T08:34:24.655Z,3.17
2023-04-12T08:36:46.564Z,2.63
2023-04-12T08:39:08.312Z,2.63
2023-04-12T08:41:30.009Z,2.63
2023-04-12T08:43:52.454Z,3.07
2023-04-12T08:46:16.090Z,2.93
2023-04-12T08:48:40.500Z,2.90
2023-04-12T08:51:03.289Z,3.40
2023-04-12T08:53:25.046Z,2.57
2023-04-12T08:55:47.336Z,2.87
2023-04-12T08:58:09.743Z,2.90
2023-04-12T09:00:31.420Z,2.77
2023-04-12T09:02:53.547Z,2.60
2023-04-12T09:05:16.357Z,3.20
2023-04-12T09:07:38.089Z,3.40
2023-04-12T09:09:59.934Z,3.60
2023-04-12T09:12:24.203Z,3.33
2023-04-12T09:14:46.103Z,3.28
2023-04-12T09:17:27.985Z,3.27
2023-04-12T09:19:50.479Z,2.70
2023-04-12T09:22:12.230Z,3.83
2023-04-12T09:24:47.611Z,3.57
2023-04-12T09:27:09.290Z,3.67
2023-04-12T09:29:32.644Z,3.10
2023-04-12T09:32:07.453Z,3.40
2023-04-12T09:34:31.232Z,3.17
2023-04-12T09:36:53.724Z,3.30
2023-04-12T09:39:15.743Z,3.10
2023-04-12T09:41:37.678Z,3.10
2023-04-12T09:44:03.032Z,3.30
2023-04-12T09:46:24.917Z,3.20
2023-04-12T09:48:52.408Z,3.57
2023-04-12T09:51:23.527Z,2.97
2023-04-12T09:53:48.851Z,3.20
2023-04-12T09:56:12.351Z,2.90
2023-04-12T09:58:39.004Z,3.20
2023-04-12T10:01:03.864Z,3.07
2023-04-12T10:03:26.686Z,3.70
2023-04-12T10:05:49.019Z,3.03
2023-04-12T10:08:15.644Z,3.57
2023-04-12T10:10:38.356Z,3.83
2023-04-12T10:13:02.210Z,4.47
2023-04-12T10:15:25.604Z,4.00
2023-04-12T10:17:54.191Z,4.17
2023-04-12T10:20:18.797Z,3.70
2023-04-12T10:25:13.161Z,4.07
2023-04-12T10:27:35.153Z,3.60
2023-04-12T10:30:22.904Z,3.57
2023-04-12T10:32:44.882Z,3.70
2023-04-12T10:35:09.419Z,3.90
2023-04-12T10:40:26.555Z,4.60
2023-04-12T10:42:48.477Z,3.90
2023-04-12T10:45:36.831Z,4.17
2023-04-12T10:48:00.431Z,4.83
2023-04-12T10:50:25.837Z,3.78
2023-04-12T10:53:10.158Z,4.60
2023-04-12T10:55:33.610Z,5.23
2023-04-12T10:57:55.373Z,4.90
2023-04-12T11:00:17.479Z,4.07
2023-04-12T11:03:12.435Z,4.10
2023-04-12T11:06:23.837Z,4.38
2023-04-12T11:09:07.019Z,4.70
2023-04-12T11:11:35.007Z,5.17
2023-04-12T11:13:59.378Z,4.20
2023-04-12T11:16:21.492Z,4.00
2023-04-12T11:18:47.219Z,4.03
2023-04-12T11:21:10.525Z,3.83
2023-04-12T11:23:33.324Z,2.13
2023-04-12T11:25:55.787Z,2.70
2023-04-12T11:28:28.722Z,2.80
2023-04-12T11:30:56.604Z,2.13
2023-04-12T11:33:39.406Z,2.80
2023-04-12T11:36:09.349Z,2.90
2023-04-12T11:38:31.408Z,2.47
2023-04-12T11:40:53.180Z,2.83
2023-04-12T11:43:20.880Z,2.83
2023-04-12T11:45:42.773Z,2.70
2023-04-12T11:48:09.331Z,2.60
2023-04-12T11:50:32.258Z,3.00
2023-04-12T11:52:54.042Z,2.90
2023-04-12T11:55:17.639Z,2.97
2023-04-12T11:57:39.791Z,2.45
2023-04-12T12:00:06.064Z,3.27
2023-04-12T12:02:46.041Z,2.80
2023-04-12T12:05:14.620Z,3.20
2023-04-12T12:07:37.789Z,3.47
2023-04-12T12:10:01.045Z,2.67
2023-04-12T12:12:24.264Z,3.13
2023-04-12T12:14:48.743Z,3.83
2023-04-12T12:17:13.709Z,4.35
2023-04-12T12:19:41.647Z,4.50
2023-04-12T12:22:12.242Z,5.60
2023-04-12T12:24:35.982Z,5.00
2023-04-12T12:27:04.719Z,5.63
2023-04-12T12:29:26.442Z,5.47
2023-04-12T12:31:49.161Z,6.40
2023-04-12T12:34:13.999Z,6.30
2023-04-12T12:39:11.209Z,6.07
2023-04-12T12:41:33.584Z,5.63
2023-04-12T12:43:55.333Z,5.47
2023-04-12T12:46:18.413Z,4.83
2023-04-12T12:48:42.037Z,5.57
2023-04-12T12:51:04.171Z,5.78
2023-04-12T12:53:26.109Z,5.50
2023-04-12T12:55:47.825Z,5.10
2023-04-12T12:58:09.434Z,4.70
2023-04-12T13:00:31.629Z,2.53
2023-04-12T13:02:54.000Z,2.30
2023-04-12T13:05:16.122Z,1.90
2023-04-12T13:07:39.174Z,1.97
2023-04-12T13:10:01.183Z,2.03
2023-04-12T13:12:22.980Z,1.63
2023-04-12T13:14:44.975Z,1.97
2023-04-12T13:17:06.986Z,1.60
2023-04-12T13:19:28.753Z,2.73
2023-04-12T13:21:52.609Z,1.90
2023-04-12T13:24:14.884Z,2.10
2023-04-12T13:26:36.639Z,2.03
2023-04-12T13:28:58.793Z,2.20
2023-04-12T13:31:20.775Z,2.40
2023-04-12T13:33:42.500Z,1.90
2023-04-12T13:36:04.609Z,2.10
2023-04-12T13:38:26.687Z,1.87
2023-04-12T13:40:48.846Z,2.13
2023-04-12T13:43:10.818Z,1.90
2023-04-12T13:45:34.058Z,2.77
2023-04-12T13:47:56.695Z,2.10
2023-04-12T13:50:18.592Z,2.10
2023-04-12T13:52:40.385Z,2.83
2023-04-12T13:55:02.234Z,2.43
2023-04-12T13:57:23.929Z,2.03
2023-04-12T13:59:45.703Z,2.77
2023-04-12T14:02:07.811Z,3.27
2023-04-12T14:04:31.943Z,3.07
2023-04-12T14:06:53.739Z,2.92
2023-04-12T14:09:30.363Z,2.80
2023-04-12T14:11:52.832Z,2.63
2023-04-12T14:14:16.652Z,3.23
2023-04-12T14:16:38.781Z,2.70
2023-04-12T14:19:00.525Z,2.53
2023-04-12T14:21:22.896Z,2.87
2023-04-12T14:23:44.704Z,1.60
2023-04-12T14:26:06.806Z,1.43
2023-04-12T14:28:31.691Z,1.70
2023-04-12T14:30:54.555Z,1.90
2023-04-12T14:33:19.582Z,1.90
2023-04-12T14:35:41.699Z,1.70
2023-04-12T14:38:04.748Z,1.87
2023-04-12T14:40:26.942Z,1.73
2023-04-12T14:42:48.791Z,1.50
2023-04-12T14:45:11.934Z,1.30
2023-04-12T14:47:34.508Z,1.93
2023-04-12T14:49:56.494Z,1.43
2023-04-12T14:52:18.881Z,1.63
2023-04-12T14:54:41.500Z,2.13
2023-04-12T14:57:04.450Z,1.60
2023-04-12T14:59:27.519Z,1.87
2023-04-12T15:01:49.534Z,1.67
2023-04-12T15:04:13.158Z,1.67
2023-04-12T15:06:37.391Z,1.20
2023-04-12T15:08:59.889Z,1.50
2023-04-12T15:11:27.238Z,0.70
2023-04-12T15:16:26.443Z,0.70
2023-04-12T15:18:51.534Z,1.13
2023-04-12T15:21:13.501Z,0.70
2023-04-12T15:23:36.000Z,0.83
2023-04-12T15:26:01.540Z,0.93
2023-04-12T15:28:23.304Z,1.73
2023-04-12T15:30:44.951Z,1.00
2023-04-12T15:33:06.717Z,0.73
2023-04-12T15:35:28.535Z,0.90
2023-04-12T15:37:50.947Z,0.90
2023-04-12T15:40:14.098Z,0.67
2023-04-12T15:42:37.843Z,0.90
2023-04-12T15:44:59.467Z,0.75
2023-04-12T15:47:21.224Z,0.70
2023-04-12T15:49:43.003Z,1.00
2023-04-12T15:52:04.852Z,1.50
2023-04-12T15:54:26.530Z,1.30
2023-04-12T15:56:50.749Z,1.00
2023-04-12T15:59:12.543Z,1.15
2023-04-12T16:01:35.822Z,1.13
2023-04-12T16:03:58.172Z,1.87
2023-04-12T16:06:21.162Z,2.30
2023-04-12T16:08:45.484Z,1.43
2023-04-12T16:11:08.848Z,1.43
2023-04-12T16:13:30.812Z,1.10
2023-04-12T16:15:52.595Z,1.10
2023-04-12T16:18:14.432Z,1.07
2023-04-12T16:20:36.390Z,1.00
2023-04-12T16:22:58.960Z,1.37
2023-04-12T16:25:23.055Z,1.13
2023-04-12T16:27:46.187Z,1.40
2023-04-12T16:30:10.585Z,1.50
2023-04-12T16:34:55.504Z,1.50
2023-04-12T16:37:18.346Z,1.70
2023-04-12T16:39:40.872Z,1.50
2023-04-12T16:42:06.253Z,1.90
2023-04-12T16:44:28.037Z,1.70
2023-04-12T16:46:50.404Z,1.50
2023-04-12T16:49:12.334Z,1.70
2023-04-12T16:51:36.992Z,1.60
2023-04-12T16:53:59.843Z,1.80
2023-04-12T16:56:23.071Z,1.97
2023-04-12T16:58:49.109Z,1.80
2023-04-12T17:01:17.095Z,2.17
2023-04-12T17:03:40.596Z,1.90
2023-04-12T17:06:04.612Z,1.90
2023-04-12T17:08:27.585Z,1.98
2023-04-12T17:10:50.148Z,1.73
2023-04-12T17:13:13.347Z,2.07
2023-04-12T17:15:36.657Z,1.90
2023-04-12T17:18:11.963Z,1.80
2023-04-12T17:22:58.134Z,1.80
2023-04-12T17:25:21.340Z,1.90
2023-04-12T17:27:45.777Z,2.10
2023-04-12T17:30:12.142Z,2.40
2023-04-12T17:32:34.908Z,2.10
2023-04-12T17:34:57.727Z,2.37
2023-04-12T17:37:19.683Z,2.00
2023-04-12T17:39:42.073Z,2.10
2023-04-12T17:42:04.546Z,2.27
2023-04-12T17:44:27.042Z,2.03
2023-04-12T17:46:49.891Z,2.30
2023-04-12T17:49:13.467Z,2.22
2023-04-12T17:51:35.435Z,2.20
2023-04-12T17:54:00.874Z,2.00
2023-04-12T17:56:22.926Z,2.30
2023-04-12T17:58:44.958Z,2.17
2023-04-12T18:01:06.925Z,1.83
2023-04-12T18:03:28.810Z,2.30
2023-04-12T18:05:51.106Z,1.90
2023-04-12T18:08:13.633Z,2.47
2023-04-12T18:10:36.828Z,2.63
2023-04-12T18:12:59.920Z,2.40
2023-04-12T18:15:22.297Z,2.73
2023-04-12T18:17:44.717Z,2.50
2023-04-12T18:20:10.631Z,2.77
2023-04-12T18:22:32.644Z,2.80
2023-04-12T18:24:54.715Z,3.43
2023-04-12T18:27:16.429Z,3.57
2023-04-12T18:29:38.609Z,3.70
2023-04-12T18:32:00.621Z,3.70
2023-04-12T18:34:23.957Z,3.23
2023-04-12T18:36:45.847Z,3.00
2023-04-12T18:39:08.002Z,3.00
2023-04-12T18:41:29.763Z,2.90
2023-04-12T18:43:51.830Z,2.90
2023-04-12T18:46:18.373Z,2.80
2023-04-12T18:48:42.202Z,2.50
2023-04-12T18:51:04.379Z,2.70
2023-04-12T18:53:26.231Z,2.33
2023-04-12T18:55:48.212Z,2.50
2023-04-12T18:58:10.320Z,2.43
2023-04-12T19:00:33.115Z,2.70
2023-04-12T19:02:55.080Z,2.23
2023-04-12T19:05:18.545Z,2.20
2023-04-12T19:07:41.363Z,2.50
2023-04-12T19:10:04.202Z,2.20
2023-04-12T19:12:26.199Z,2.63
2023-04-12T19:14:48.663Z,2.80
2023-04-12T19:17:10.622Z,2.80
2023-04-12T19:19:32.352Z,2.60
2023-04-12T19:21:54.832Z,2.67
2023-04-12T19:24:16.558Z,2.50
2023-04-12T19:26:41.790Z,2.40
2023-04-12T19:29:04.247Z,2.73
2023-04-12T19:31:26.144Z,2.27
2023-04-12T19:33:48.107Z,2.90
2023-04-12T19:36:10.876Z,2.50
2023-04-12T19:38:32.960Z,2.77
2023-04-12T19:40:54.876Z,2.77
2023-04-12T19:43:18.793Z,2.40
2023-04-12T19:45:42.302Z,2.60
2023-04-12T19:48:04.756Z,2.70
2023-04-12T19:50:26.812Z,2.40
2023-04-12T19:52:49.004Z,2.90
2023-04-12T19:55:11.320Z,2.53
2023-04-12T19:57:33.321Z,2.90
2023-04-12T19:59:55.473Z,2.60
2023-04-12T20:02:18.889Z,2.60
2023-04-12T20:04:40.787Z,2.77
2023-04-12T20:07:02.621Z,2.73
2023-04-12T20:09:26.151Z,2.50
2023-04-12T20:11:48.439Z,2.70
2023-04-12T20:14:10.100Z,2.27
2023-04-12T20:16:32.982Z,2.63
2023-04-12T20:18:57.637Z,2.40
2023-04-12T20:21:19.530Z,2.83
2023-04-12T20:23:41.282Z,2.60
2023-04-12T20:26:03.982Z,2.47
2023-04-12T20:28:26.164Z,2.33
2023-04-12T20:30:48.567Z,2.20
2023-04-12T20:33:10.791Z,2.00
2023-04-12T20:35:33.117Z,2.20
2023-04-12T20:37:55.025Z,2.00
2023-04-12T20:40:18.653Z,2.03
2023-04-12T20:42:42.468Z,2.00
2023-04-12T20:45:04.719Z,2.50
2023-04-12T20:47:27.506Z,2.00
2023-04-12T20:49:50.689Z,1.90
2023-04-12T20:52:16.856Z,1.67
2023-04-12T20:54:38.758Z,1.60
2023-04-12T20:57:04.014Z,1.43
2023-04-12T20:59:30.325Z,1.20
2023-04-12T21:01:53.333Z,1.37
2023-04-12T21:04:15.954Z,1.40
2023-04-12T21:06:38.120Z,0.93
2023-04-12T21:09:00.138Z,1.37
2023-04-12T21:11:22.570Z,1.30
2023-04-12T21:13:44.785Z,1.10
2023-04-12T21:16:08.325Z,1.00
2023-04-12T21:18:32.378Z,0.90
2023-04-12T21:20:58.774Z,0.75
2023-04-12T21:23:20.760Z,0.90
2023-04-12T21:25:44.075Z,0.90
2023-04-12T21:28:07.013Z,0.90
2023-04-12T21:30:28.701Z,0.90
2023-04-12T21:32:51.849Z,0.70
2023-04-12T21:35:13.869Z,0.70
2023-04-12T21:37:38.890Z,1.00
2023-04-12T21:40:01.053Z,0.73
2023-04-12T21:42:22.795Z,0.87
2023-04-12T21:44:44.476Z,1.27
2023-04-12T21:47:06.659Z,0.90
2023-04-12T21:49:30.118Z,1.23
2023-04-12T21:51:52.377Z,0.90
2023-04-12T21:54:14.670Z,1.00
2023-04-12T21:56:36.671Z,1.07
2023-04-12T21:59:00.213Z,1.10
2023-04-12T22:01:22.354Z,1.30
2023-04-12T22:03:45.264Z,1.10
2023-04-12T22:06:07.942Z,1.20
2023-04-12T22:08:29.850Z,1.20
2023-04-12T22:10:54.337Z,1.70
2023-04-12T22:15:38.497Z,1.20
2023-04-12T22:18:00.516Z,1.37
2023-04-12T22:20:23.296Z,1.37
2023-04-12T22:22:45.019Z,1.50
2023-04-12T22:25:11.819Z,1.30
2023-04-12T22:27:33.618Z,1.27
2023-04-12T22:29:55.356Z,1.57
2023-04-12T22:32:17.021Z,1.50
2023-04-12T22:34:39.256Z,1.30
2023-04-12T22:37:03.321Z,1.20
2023-04-12T22:39:26.640Z,1.42
2023-04-12T22:41:49.128Z,1.20
2023-04-12T22:44:10.891Z,1.07
2023-04-12T22:46:33.283Z,1.23
2023-04-12T22:48:55.938Z,1.03
2023-04-12T22:51:18.002Z,1.10
2023-04-12T22:53:40.297Z,1.10
2023-04-12T22:56:01.994Z,0.90
2023-04-12T22:58:24.118Z,0.90
2023-04-12T23:00:45.766Z,1.03
2023-04-12T23:03:10.833Z,0.90
2023-04-12T23:05:33.749Z,0.90
2023-04-12T23:07:55.481Z,0.90
2023-04-12T23:10:18.260Z,1.00
2023-04-12T23:12:40.178Z,1.20
2023-04-12T23:15:02.207Z,1.00
2023-04-12T23:17:24.312Z,1.17
2023-04-12T23:19:46.224Z,1.20
2023-04-12T23:22:09.028Z,0.87
2023-04-12T23:24:30.997Z,1.03
2023-04-12T23:26:52.738Z,0.97
2023-04-12T23:29:14.431Z,0.60
2023-04-12T23:31:36.185Z,0.87
2023-04-12T23:34:02.501Z,0.67
2023-04-12T23:36:25.879Z,0.90
2023-04-12T23:38:48.104Z,0.73
2023-04-12T23:41:11.866Z,0.80
2023-04-12T23:43:34.878Z,0.82
2023-04-12T23:45:57.409Z,1.00
2023-04-12T23:48:19.335Z,0.73
2023-04-12T23:50:41.026Z,0.73
2023-04-12T23:53:03.637Z,0.97
2023-04-12T23:55:26.137Z,0.80
2023-04-12T23:57:47.788Z,1.20
